メインページ
METAR-TAF:

METAR-TAF

空港 :

ザーヘダーン, イラン

緯度: 29-28N, 経度: 060-53E, 海抜: 1370m

現時点の気象観測

当レポートは18分前の06:00(UTC)に作成
北/北東の風 6kt
気温 25°C
湿度 24%
気圧 1020 hPa
視程: 8000m

METAR: OIZH 040600Z 03006KT 8000 NSC 25/03 Q1020 A3013 NOSIG

時間: 10:48 (06:18 UTC)

予報

当レポートは48分前の05:30(UTC)に作成
予報は04日の 06時(UTC)から 05日の 12時(UTC)まで有効
南/南西の風 4kt
視程: 8000m
04日の 12時(UTC)から 04日の 18時(UTC)まで一時的に
北西の風 18kt
視程: 4000m
05日の 06時(UTC)から 05日の 08時(UTC)まで徐々に
西の風 18kt

TAF: OIZH 040530Z 0406/0512 21004KT 8000 NSC TEMPO 0412/0418 32018KT 4000 SA BECMG 0506/0508 27018KT

4,000以上の空港の気象観測と天気予報(METAR報とTAF報)

利用可能な観測所は地図上に黄色い丸と赤い丸で示す。

丸の上にカーソルを重ねると観測所名を参照できる。

次にクリックすると気象観測と天気予報を参照できる。

マップの切り替え:黒色「×」印の緑ボタンをクリックして拡大、「-」印の緑ボタンをクリックして縮小、緑色の三角印をクリックして隣りの地図に切り替え


METAR-TAF: